Time;durP1;ratioP1;P1;durP2;ratioP2;P2;SDS_P1;SDS_P2;PMS_P1;PMS_P2;Temp;Humidity;BMP_temperature;BMP_pressure;BME280_temperature;BME280_humidity;BME280_pressure;Samples;Min_cycle;Max_cycle;Signal;HPM_P1;HPM_P2
2024/01/21 00:14:54;;;;;;;135.70;36.70;;;;;;;-0.29;85.74;101566.81;682058;1262;23009;-78
2024/01/21 00:29:58;;;;;;;112.60;37.10;;;;;;;-0.21;85.86;101581.77;682048;1265;22225;-78
2024/01/21 00:45:02;;;;;;;168.00;55.20;;;;;;;-0.26;85.83;101610.42;682033;1262;22135;-78
2024/01/21 01:00:07;;;;;;;137.90;48.40;;;;;;;-0.39;85.99;101620.84;681830;1262;22442;-78
2024/01/21 01:15:11;;;;;;;30.70;13.90;;;;;;;-0.62;85.54;101619.41;682057;1262;23259;-78
2024/01/21 01:30:15;;;;;;;;;;;;;;;-1.35;84.69;101633.79;682072;1266;23178;-78
2024/01/21 01:45:19;;;;;;;56.40;18.00;;;;;;;-1.73;84.81;101653.11;682039;1260;22234;-78
2024/01/21 02:00:22;;;;;;;61.70;19.80;;;;;;;-2.24;84.07;101671.98;682017;1265;22428;-80
2024/01/21 02:15:27;;;;;;;40.30;14.50;;;;;;;-2.34;84.54;101674.16;682199;1265;22443;-78
2024/01/21 02:30:31;;;;;;;30.90;13.80;;;;;;;-2.64;82.94;101689.73;682043;1265;22497;-80
2024/01/21 02:45:37;;;;;;;53.10;19.60;;;;;;;-2.97;82.31;101702.57;682010;1262;22335;-81
2024/01/21 03:00:40;;;;;;;49.60;21.10;;;;;;;-2.57;83.30;101703.89;682191;1260;22365;-78
2024/01/21 03:15:44;;;;;;;25.80;10.70;;;;;;;-2.43;83.67;101703.90;682217;1262;22262;-79
2024/01/21 03:30:48;;;;;;;43.30;16.00;;;;;;;-1.99;84.63;101693.25;681964;1265;22171;-81
2024/01/21 03:45:52;;;;;;;62.00;24.10;;;;;;;-1.79;85.06;101699.50;682087;1262;22363;-81
2024/01/21 04:00:56;;;;;;;62.50;26.00;;;;;;;-1.57;85.09;101687.70;682001;1266;22266;-79
2024/01/21 04:16:02;;;;;;;56.00;24.40;;;;;;;-1.67;84.71;101706.71;682097;1260;22311;-80
2024/01/21 04:31:06;;;;;;;172.00;49.50;;;;;;;-1.76;84.61;101721.77;682091;1265;22313;-80
2024/01/21 04:46:09;;;;;;;116.80;37.50;;;;;;;-1.36;85.73;101718.10;682010;1261;22248;-79
2024/01/21 05:01:15;;;;;;;100.90;37.50;;;;;;;-0.86;86.32;101710.77;681889;1265;22260;-79
2024/01/21 05:16:20;;;;;;;;;;;;;;;-0.57;86.80;101708.70;682016;1265;22456;-79
2024/01/21 05:31:28;;;;;;;222.00;74.40;;;;;;;-0.33;87.30;101702.23;682057;1265;22099;-79
2024/01/21 05:46:32;;;;;;;110.30;38.80;;;;;;;-0.12;87.90;101704.20;681925;1265;22998;-81
2024/01/21 06:01:36;;;;;;;90.70;28.90;;;;;;;0.67;91.44;101714.50;681734;1261;22399;-79
2024/01/21 06:16:40;;;;;;;108.50;32.50;;;;;;;1.42;96.13;101726.42;681818;1266;22168;-79
2024/01/21 06:31:44;;;;;;;129.40;43.30;;;;;;;1.83;99.02;101742.52;681869;1265;22493;-79
2024/01/21 06:46:48;;;;;;;130.00;43.60;;;;;;;2.04;100.00;101756.98;681839;1268;22160;-79
2024/01/21 07:01:51;;;;;;;123.70;35.30;;;;;;;2.23;100.00;101751.91;681929;1265;22303;-79
2024/01/21 07:16:55;;;;;;;111.80;34.80;;;;;;;2.53;100.00;101761.73;681977;1268;22525;-78
2024/01/21 07:31:58;;;;;;;100.40;34.70;;;;;;;2.74;100.00;101767.30;681974;1266;173303;-78
2024/01/21 07:47:02;;;;;;;114.40;32.50;;;;;;;2.85;100.00;101765.23;681958;1265;23013;-78
2024/01/21 08:02:06;;;;;;;119.80;35.60;;;;;;;2.89;100.00;101769.07;681898;1265;23285;-78
2024/01/21 08:17:10;;;;;;;138.30;42.50;;;;;;;2.93;100.00;101770.66;681914;1266;22159;-78
2024/01/21 08:32:13;;;;;;;142.70;41.60;;;;;;;3.06;100.00;101774.23;682031;1265;22886;-78
2024/01/21 08:47:17;;;;;;;114.90;38.40;;;;;;;3.05;100.00;101776.49;681807;1265;22232;-79
2024/01/21 09:02:21;;;;;;;216.70;83.30;;;;;;;3.35;100.00;101771.72;681868;1266;22431;-78
2024/01/21 09:17:25;;;;;;;93.40;35.70;;;;;;;3.69;100.00;101766.40;681796;1265;22329;-79
2024/01/21 09:32:29;;;;;;;95.50;37.00;;;;;;;3.59;100.00;101760.66;681837;1263;22106;-79
2024/01/21 09:47:34;;;;;;;81.20;31.90;;;;;;;3.53;100.00;101761.42;681952;1265;22991;-79
2024/01/21 10:02:42;;;;;;;94.70;34.90;;;;;;;3.61;100.00;101765.46;681919;1266;22216;-79
2024/01/21 10:17:47;;;;;;;84.40;35.00;;;;;;;3.82;99.81;101768.34;681809;1266;22178;-79
2024/01/21 10:32:53;;;;;;;81.10;33.60;;;;;;;3.82;98.78;101760.70;682020;1277;22961;-80
2024/01/21 10:48:01;;;;;;;;;;;;;;;3.92;97.72;101741.14;682003;1265;23402;-80
2024/01/21 11:03:27;;;;;;;59.20;27.10;;;;;;;4.18;95.11;101734.50;681816;1272;22330;-81
2024/01/21 11:18:32;;;;;;;57.00;25.00;;;;;;;4.37;93.32;101733.92;681924;1265;22245;-80
2024/01/21 11:33:36;;;;;;;54.90;23.80;;;;;;;4.23;92.00;101715.43;681995;1267;22459;-81
2024/01/21 11:48:40;;;;;;;53.80;24.00;;;;;;;4.18;91.40;101705.40;682111;1265;22130;-80
2024/01/21 12:03:46;;;;;;;73.50;31.20;;;;;;;4.29;91.04;101696.80;681857;1276;22142;-79
2024/01/21 12:18:51;;;;;;;50.00;22.80;;;;;;;4.60;89.86;101682.60;681900;1267;22160;-79
2024/01/21 12:33:57;;;;;;;47.70;22.50;;;;;;;4.77;88.20;101655.77;681955;1268;22152;-79
2024/01/21 12:49:01;;;;;;;42.20;19.40;;;;;;;4.40;87.12;101642.69;681833;1266;22256;-80
2024/01/21 13:04:04;;;;;;;52.20;22.70;;;;;;;4.32;87.41;101635.05;681896;1270;22311;-79
2024/01/21 13:19:09;;;;;;;50.90;22.80;;;;;;;4.36;86.82;101633.66;681942;1260;22504;-79
2024/01/21 13:34:14;;;;;;;49.30;21.90;;;;;;;4.33;86.30;101635.69;682018;1264;22146;-79
2024/01/21 13:49:17;;;;;;;49.90;23.20;;;;;;;3.97;86.73;101636.43;682011;1266;22114;-79
2024/01/21 14:04:21;;;;;;;54.50;23.60;;;;;;;3.71;87.69;101628.91;682016;1263;23212;-79
2024/01/21 14:19:29;;;;;;;69.60;27.90;;;;;;;3.34;89.45;101608.31;681993;1261;22158;-79
2024/01/21 14:34:34;;;;;;;65.10;30.30;;;;;;;3.44;89.56;101584.27;682126;1260;22483;-79
2024/01/21 14:49:38;;;;;;;63.50;26.70;;;;;;;3.31;90.24;101560.19;682122;1266;22162;-78
2024/01/21 15:04:49;;;;;;;74.00;32.40;;;;;;;3.22;90.73;101549.09;682224;1262;22396;-79
2024/01/21 15:19:52;;;;;;;86.10;32.10;;;;;;;3.31;91.29;101555.52;681915;1262;22410;-79
2024/01/21 15:34:56;;;;;;;69.80;28.00;;;;;;;3.30;91.35;101538.09;681964;1262;22146;-79
2024/01/21 15:49:59;;;;;;;61.70;27.20;;;;;;;3.39;91.05;101513.52;681920;1266;22183;-79
2024/01/21 16:05:03;;;;;;;56.80;24.10;;;;;;;3.30;91.58;101464.61;682113;1261;22276;-79
2024/01/21 16:20:07;;;;;;;76.10;31.00;;;;;;;3.45;90.99;101483.73;682161;1260;23136;-79
2024/01/21 16:35:11;;;;;;;58.00;24.90;;;;;;;3.39;90.77;101448.67;682414;1262;22387;-80
2024/01/21 16:50:15;;;;;;;51.40;23.40;;;;;;;3.50;89.59;101473.15;682532;1261;22258;-80
2024/01/21 17:05:19;;;;;;;51.10;22.30;;;;;;;3.45;88.38;101412.64;682252;1262;22260;-78
2024/01/21 17:20:25;;;;;;;48.30;21.00;;;;;;;3.62;86.68;101397.97;682230;1266;22369;-79
2024/01/21 17:35:29;;;;;;;51.30;22.40;;;;;;;3.54;85.97;101362.98;682078;1262;22251;-79
2024/01/21 17:50:33;;;;;;;65.00;32.50;;;;;;;3.46;85.91;101307.96;681826;1265;22149;-79
2024/01/21 18:05:37;;;;;;;57.20;23.00;;;;;;;3.47;85.70;101353.95;682074;1261;22322;-80
2024/01/21 18:20:42;;;;;;;124.10;46.90;;;;;;;3.57;84.54;101347.29;682146;1263;23148;-79
2024/01/21 18:35:47;;;;;;;60.60;26.30;;;;;;;3.15;85.27;101342.22;682245;1262;22193;-80
2024/01/21 18:50:50;;;;;;;61.90;25.80;;;;;;;2.74;86.50;101287.02;682189;1264;22132;-79
2024/01/21 19:05:54;;;;;;;64.50;26.80;;;;;;;2.49;87.10;101247.73;681817;1260;139958;-80
2024/01/21 19:20:58;;;;;;;89.20;35.40;;;;;;;2.60;87.25;101234.18;681990;1264;139680;-80
2024/01/21 19:36:02;;;;;;;92.00;35.30;;;;;;;2.56;86.91;101214.48;681672;1265;342045;-80
2024/01/21 19:51:07;;;;;;;76.10;30.50;;;;;;;2.54;87.51;101179.84;682011;1265;139420;-82
2024/01/21 20:06:12;;;;;;;62.20;29.70;;;;;;;2.62;87.98;101153.11;681609;1265;139498;-80
2024/01/21 20:21:16;;;;;;;75.30;33.20;;;;;;;2.81;86.85;101156.64;681900;1263;140392;-80
2024/01/21 20:36:21;;;;;;;67.40;28.00;;;;;;;2.69;86.42;101137.63;681689;1266;139475;-82
2024/01/21 20:51:25;;;;;;;62.50;27.90;;;;;;;2.79;85.09;101143.92;681849;1262;140008;-81
2024/01/21 21:06:30;;;;;;;58.90;26.10;;;;;;;2.64;85.21;101143.17;681636;1263;139321;-80
2024/01/21 21:21:43;;;;;;;65.50;26.10;;;;;;;2.80;84.72;101149.05;681850;1264;140035;-79
2024/01/21 21:36:47;;;;;;;62.40;25.50;;;;;;;2.81;84.02;101144.68;681685;1265;140298;-79
2024/01/21 21:51:51;;;;;;;52.90;24.40;;;;;;;2.78;83.48;101100.29;681958;1263;140043;-80
2024/01/21 22:06:54;;;;;;;63.40;26.40;;;;;;;2.65;83.11;101063.85;681606;1263;141991;-80
2024/01/21 22:22:00;;;;;;;56.20;24.20;;;;;;;2.69;82.44;101054.66;681836;1262;139807;-80
2024/01/21 22:37:08;;;;;;;49.40;21.50;;;;;;;2.70;81.13;101051.19;681662;1266;139819;-80
2024/01/21 22:52:11;;;;;;;45.20;20.50;;;;;;;2.59;80.03;101036.09;681673;1265;140893;-81
2024/01/21 23:07:15;;;;;;;50.30;20.10;;;;;;;2.67;79.03;101026.96;681515;1265;141514;-80
2024/01/21 23:22:19;;;;;;;46.40;19.90;;;;;;;2.75;77.59;101006.55;681645;1265;139711;-81
2024/01/21 23:37:23;;;;;;;45.30;17.70;;;;;;;2.73;76.20;100991.65;681428;1263;139964;-80
2024/01/21 23:52:27;;;;;;;42.20;18.20;;;;;;;2.71;75.48;100967.20;681668;1265;140312;-79
